Time;durP1;ratioP1;P1;durP2;ratioP2;P2;SDS_P1;SDS_P2;PMS_P1;PMS_P2;Temp;Humidity;BMP_temperature;BMP_pressure;BME280_temperature;BME280_humidity;BME280_pressure;Samples;Min_cycle;Max_cycle;Signal;HPM_P1;HPM_P2
2021/08/10 00:01:22;;;;;;;;;5.00;5.00;;;;;;;;4692888;30;46550;-88
2021/08/10 00:03:47;;;;;;;;;7.00;5.00;;;;;;;;4694476;30;48855;-87
2021/08/10 00:06:12;;;;;;;;;5.00;5.00;;;;;;;;4692017;30;47074;-88
2021/08/10 00:08:38;;;;;;;;;4.00;4.00;;;;;;;;4695388;30;45374;-88
2021/08/10 00:11:03;;;;;;;;;6.00;5.00;;;;;;;;4753944;24;45305;-82
2021/08/10 00:13:28;;;;;;;;;4.75;4.75;;;;;;;;4686322;30;45590;-79
2021/08/10 00:15:53;;;;;;;;;6.75;5.00;;;;;;;;4687766;30;45737;-80
2021/08/10 00:20:54;;;;;;;;;6.50;4.50;;;;;;;;4679697;25;47218;-81
2021/08/10 00:23:19;;;;;;;;;5.00;5.00;;;;;;;;4672925;30;45483;-81
2021/08/10 00:25:46;;;;;;;;;7.50;5.00;;;;;;;;4672317;30;46242;-81
2021/08/10 00:28:11;;;;;;;;;4.25;3.50;;;;;;;;4675199;30;45506;-81
2021/08/10 00:33:05;;;;;;;;;8.00;5.25;;;;;;;;4655175;30;46723;-87
2021/08/10 00:35:30;;;;;;;;;7.00;5.00;;;;;;;;4640806;30;48183;-87
2021/08/10 00:37:55;;;;;;;;;6.00;6.00;;;;;;;;4651810;30;45404;-88
2021/08/10 00:40:21;;;;;;;;;7.00;5.67;;;;;;;;4639807;30;51525;-88
2021/08/10 00:42:46;;;;;;;;;5.50;4.00;;;;;;;;4660509;30;45575;-87
2021/08/10 00:45:11;;;;;;;;;7.00;4.00;;;;;;;;4643187;30;48126;-86
2021/08/10 00:47:37;;;;;;;;;5.00;5.00;;;;;;;;4654846;30;45404;-87
2021/08/10 00:50:03;;;;;;;;;4.75;4.75;;;;;;;;4643997;30;45537;-87
2021/08/10 00:52:28;;;;;;;;;6.75;4.00;;;;;;;;4659480;30;45552;-89
2021/08/10 00:54:53;;;;;;;;;5.75;5.00;;;;;;;;4660336;30;46550;-88
2021/08/10 00:57:19;;;;;;;;;4.00;4.00;;;;;;;;4844633;24;45786;-79
2021/08/10 00:59:44;;;;;;;;;6.75;4.50;;;;;;;;4680338;30;45525;-79
2021/08/10 01:02:09;;;;;;;;;5.00;5.00;;;;;;;;4681348;30;45507;-82
2021/08/10 01:04:35;;;;;;;;;7.00;6.25;;;;;;;;4695178;30;46557;-80
2021/08/10 01:07:19;;;;;;;;;5.50;4.25;;;;;;;;4834860;24;45454;-79
2021/08/10 01:09:44;;;;;;;;;3.75;3.75;;;;;;;;4763632;24;46005;-80
2021/08/10 01:12:13;;;;;;;;;4.00;4.00;;;;;;;;4694140;30;45562;-80
2021/08/10 01:14:38;;;;;;;;;5.00;5.00;;;;;;;;4762426;24;47155;-87
2021/08/10 01:17:26;;;;;;;;;7.00;6.00;;;;;;;;4693837;30;45753;-87
2021/08/10 01:20:20;;;;;;;;;6.00;5.75;;;;;;;;4716801;24;45660;-88
2021/08/10 01:22:47;;;;;;;;;11.00;6.00;;;;;;;;4699345;30;45582;-90
2021/08/10 01:25:12;;;;;;;;;6.25;6.25;;;;;;;;4700003;30;48104;-90
2021/08/10 01:30:25;;;;;;;;;6.00;5.25;;;;;;;;4693337;30;45585;-91
2021/08/10 01:32:52;;;;;;;;;7.75;6.00;;;;;;;;4678487;30;51575;-89
2021/08/10 01:35:19;;;;;;;;;10.50;7.75;;;;;;;;4693800;30;46041;-90
2021/08/10 01:37:49;;;;;;;;;6.75;5.25;;;;;;;;4750075;25;45726;-91
2021/08/10 01:40:15;;;;;;;;;9.25;5.75;;;;;;;;4695489;29;45539;-91
2021/08/10 01:42:41;;;;;;;;;8.25;6.50;;;;;;;;4704291;30;45645;-87
2021/08/10 01:45:07;;;;;;;;;7.00;6.00;;;;;;;;4690686;30;48308;-90
2021/08/10 01:47:33;;;;;;;;;8.50;6.75;;;;;;;;4709430;30;45550;-89
2021/08/10 01:49:59;;;;;;;;;9.25;6.50;;;;;;;;4704391;29;46663;-90
2021/08/10 01:52:25;;;;;;;;;9.00;7.50;;;;;;;;4699524;30;45449;-90
2021/08/10 01:54:51;;;;;;;;;8.50;6.50;;;;;;;;4692675;30;48636;-89
2021/08/10 01:57:20;;;;;;;;;9.00;6.75;;;;;;;;4707826;30;45562;-90
2021/08/10 01:59:46;;;;;;;;;8.00;6.25;;;;;;;;4692691;30;45437;-90
2021/08/10 02:02:12;;;;;;;;;7.00;6.00;;;;;;;;4719086;24;45808;-90
2021/08/10 02:04:38;;;;;;;;;8.50;6.00;;;;;;;;4679486;30;47322;-90
2021/08/10 02:07:03;;;;;;;;;9.75;7.00;;;;;;;;4699952;30;45440;-91
2021/08/10 02:09:29;;;;;;;;;9.00;6.75;;;;;;;;4691819;30;45799;-91
2021/08/10 02:11:54;;;;;;;;;10.50;7.75;;;;;;;;4670569;30;45349;-89
2021/08/10 02:14:25;;;;;;;;;9.00;8.00;;;;;;;;4688320;30;47144;-90
2021/08/10 02:16:54;;;;;;;;;6.25;6.00;;;;;;;;4690748;30;45523;-88
2021/08/10 02:19:20;;;;;;;;;9.75;8.00;;;;;;;;4694726;30;45459;-90
2021/08/10 02:22:04;;;;;;;;;8.00;8.00;;;;;;;;4698266;30;45373;-90
2021/08/10 02:24:36;;;;;;;;;9.75;7.75;;;;;;;;4677319;30;48652;-90
2021/08/10 02:27:12;;;;;;;;;7.00;7.00;;;;;;;;4734260;24;45614;-90
2021/08/10 02:29:42;;;;;;;;;11.00;8.25;;;;;;;;4708879;24;45585;-90
2021/08/10 02:32:08;;;;;;;;;7.00;6.00;;;;;;;;4683181;30;45427;-89
2021/08/10 02:34:34;;;;;;;;;8.00;8.00;;;;;;;;4694526;30;46356;-90
2021/08/10 02:36:59;;;;;;;;;10.00;7.75;;;;;;;;4683667;30;45426;-89
2021/08/10 02:39:25;;;;;;;;;7.00;5.75;;;;;;;;4697251;30;45586;-89
2021/08/10 02:41:53;;;;;;;;;9.00;7.00;;;;;;;;4679337;30;45345;-89
2021/08/10 02:44:18;;;;;;;;;6.25;6.25;;;;;;;;4685489;30;47742;-89
2021/08/10 02:46:50;;;;;;;;;7.00;6.00;;;;;;;;4697077;30;45471;-89
2021/08/10 02:49:18;;;;;;;;;8.00;6.00;;;;;;;;4710484;24;45374;-79
2021/08/10 02:51:43;;;;;;;;;10.00;8.00;;;;;;;;4716396;24;45687;-90
2021/08/10 02:54:11;;;;;;;;;9.00;7.00;;;;;;;;4692889;30;47060;-89
2021/08/10 02:56:44;;;;;;;;;7.00;7.00;;;;;;;;4683939;30;45653;-88
2021/08/10 02:59:23;;;;;;;;;10.25;6.00;;;;;;;;4695085;30;45542;-87
2021/08/10 03:01:59;;;;;;;;;7.50;6.50;;;;;;;;4703141;24;46979;-81
2021/08/10 03:04:25;;;;;;;;;6.75;5.50;;;;;;;;4764112;24;45565;-90
2021/08/10 03:06:51;;;;;;;;;8.75;7.00;;;;;;;;4681598;30;45739;-89
2021/08/10 03:09:17;;;;;;;;;6.75;6.75;;;;;;;;4690750;30;54649;-89
2021/08/10 03:11:42;;;;;;;;;9.75;7.00;;;;;;;;4695665;30;45357;-90
2021/08/10 03:14:10;;;;;;;;;5.67;5.67;;;;;;;;4695443;30;46394;-89
2021/08/10 03:16:36;;;;;;;;;7.50;7.50;;;;;;;;4707034;24;45356;-82
2021/08/10 03:19:10;;;;;;;;;7.00;7.00;;;;;;;;4683525;30;45570;-82
2021/08/10 03:21:36;;;;;;;;;10.50;8.00;;;;;;;;4697713;30;45470;-81
2021/08/10 03:24:04;;;;;;;;;9.25;6.75;;;;;;;;4694812;30;45615;-81
2021/08/10 03:26:29;;;;;;;;;8.75;7.75;;;;;;;;4690309;30;45639;-81
2021/08/10 03:28:59;;;;;;;;;10.75;8.50;;;;;;;;4688332;30;45502;-82
2021/08/10 03:31:25;;;;;;;;;9.25;9.00;;;;;;;;4772048;24;45626;-83
2021/08/10 03:33:51;;;;;;;;;11.75;11.00;;;;;;;;4713213;24;46847;-81
2021/08/10 03:38:51;;;;;;;;;9.50;9.50;;;;;;;;4743203;24;44867;-89
2021/08/10 03:41:17;;;;;;;;;8.00;8.00;;;;;;;;4680869;30;45649;-86
2021/08/10 03:43:42;;;;;;;;;12.00;8.25;;;;;;;;4836875;24;46415;-89
2021/08/10 03:46:08;;;;;;;;;9.75;8.75;;;;;;;;4720784;24;45912;-83
2021/08/10 03:48:37;;;;;;;;;7.50;7.50;;;;;;;;4706037;30;45609;-82
2021/08/10 03:51:02;;;;;;;;;8.75;7.00;;;;;;;;4695192;24;45472;-81
2021/08/10 03:53:29;;;;;;;;;9.50;8.50;;;;;;;;4682008;30;47392;-81
2021/08/10 03:55:54;;;;;;;;;9.25;7.00;;;;;;;;4692858;30;45658;-79
2021/08/10 03:58:23;;;;;;;;;6.75;6.50;;;;;;;;4678756;30;45539;-80
2021/08/10 04:00:49;;;;;;;;;10.50;7.50;;;;;;;;4691344;30;46267;-79
2021/08/10 04:05:51;;;;;;;;;8.25;7.00;;;;;;;;4710623;24;45599;-87
2021/08/10 04:08:16;;;;;;;;;6.50;6.50;;;;;;;;4677172;30;45651;-88
2021/08/10 04:10:46;;;;;;;;;7.50;6.25;;;;;;;;4683739;30;45606;-89
2021/08/10 04:13:11;;;;;;;;;7.50;7.50;;;;;;;;4691277;30;46498;-88
2021/08/10 04:15:41;;;;;;;;;7.75;5.75;;;;;;;;4695025;30;45524;-88
2021/08/10 04:18:07;;;;;;;;;7.25;7.25;;;;;;;;4693354;30;45335;-88
2021/08/10 04:20:32;;;;;;;;;11.00;8.00;;;;;;;;4674438;30;45595;-88
2021/08/10 04:23:13;;;;;;;;;9.67;7.67;;;;;;;;4685342;30;45577;-88
2021/08/10 04:25:45;;;;;;;;;9.25;7.75;;;;;;;;4696536;30;45558;-89
2021/08/10 04:28:11;;;;;;;;;11.25;10.00;;;;;;;;4700400;30;45557;-89
2021/08/10 04:30:37;;;;;;;;;10.25;8.25;;;;;;;;4700240;30;45304;-88
2021/08/10 04:33:05;;;;;;;;;8.25;8.25;;;;;;;;4673330;30;47066;-87
2021/08/10 04:35:30;;;;;;;;;12.25;9.50;;;;;;;;4696049;30;45782;-87
2021/08/10 04:37:55;;;;;;;;;10.75;9.25;;;;;;;;4703931;24;45497;-81
2021/08/10 04:40:21;;;;;;;;;11.50;11.25;;;;;;;;4693528;29;45442;-79
2021/08/10 04:45:24;;;;;;;;;13.50;11.75;;;;;;;;4723303;24;1622650;-81
2021/08/10 04:47:49;;;;;;;;;9.50;8.50;;;;;;;;4797580;24;45486;-79
2021/08/10 04:50:15;;;;;;;;;12.25;10.50;;;;;;;;4691236;30;45654;-79
2021/08/10 04:52:40;;;;;;;;;9.25;9.25;;;;;;;;4796462;24;46514;-89
2021/08/10 04:55:06;;;;;;;;;14.00;10.00;;;;;;;;4681861;30;45531;-90
2021/08/10 04:57:31;;;;;;;;;13.25;11.25;;;;;;;;4695059;30;45831;-87
2021/08/10 04:59:56;;;;;;;;;15.25;12.00;;;;;;;;4692641;30;45369;-89
2021/08/10 05:02:21;;;;;;;;;10.00;10.00;;;;;;;;4697144;30;46484;-89
2021/08/10 05:04:47;;;;;;;;;9.67;8.33;;;;;;;;4698815;30;45416;-89
2021/08/10 05:07:14;;;;;;;;;10.33;9.67;;;;;;;;4705960;30;45301;-89
2021/08/10 05:09:41;;;;;;;;;12.75;9.50;;;;;;;;4737670;24;45474;-88
2021/08/10 05:12:07;;;;;;;;;9.75;9.75;;;;;;;;4712432;29;46372;-88
2021/08/10 05:14:33;;;;;;;;;13.50;9.00;;;;;;;;4706980;30;45402;-87
2021/08/10 05:16:58;;;;;;;;;10.25;7.50;;;;;;;;4699862;30;45573;-88
2021/08/10 05:19:23;;;;;;;;;13.00;10.75;;;;;;;;4681843;30;45730;-89
2021/08/10 05:21:48;;;;;;;;;10.25;9.00;;;;;;;;4713542;24;46603;-81
2021/08/10 05:24:19;;;;;;;;;13.75;11.00;;;;;;;;4684282;30;45565;-82
2021/08/10 05:26:44;;;;;;;;;10.25;8.75;;;;;;;;4707247;30;45764;-82
2021/08/10 05:31:39;;;;;;;;;15.75;11.00;;;;;;;;4700096;30;46748;-81
2021/08/10 05:34:04;;;;;;;;;16.25;10.50;;;;;;;;4856571;24;51026;-82
2021/08/10 05:36:29;;;;;;;;;10.50;9.50;;;;;;;;4733013;24;45511;-82
2021/08/10 05:38:54;;;;;;;;;8.25;8.00;;;;;;;;4751841;24;45549;-81
2021/08/10 05:41:20;;;;;;;;;10.00;9.00;;;;;;;;4689710;30;46354;-81
2021/08/10 05:43:46;;;;;;;;;8.50;6.50;;;;;;;;4681064;30;45756;-82
2021/08/10 05:46:11;;;;;;;;;12.25;7.00;;;;;;;;4774147;24;45522;-81
2021/08/10 05:48:36;;;;;;;;;9.25;9.00;;;;;;;;4743872;24;45607;-81
2021/08/10 05:51:04;;;;;;;;;13.00;9.00;;;;;;;;4686135;24;45655;-81
2021/08/10 05:53:31;;;;;;;;;10.50;9.00;;;;;;;;4664595;30;45743;-81
2021/08/10 05:58:29;;;;;;;;;9.25;7.50;;;;;;;;4807671;24;47107;-82
2021/08/10 06:00:55;;;;;;;;;10.00;9.33;;;;;;;;4669110;30;47005;-81
2021/08/10 06:03:20;;;;;;;;;11.00;9.50;;;;;;;;4849924;24;46253;-81
2021/08/10 06:05:45;;;;;;;;;8.50;8.50;;;;;;;;4705845;24;47556;-81
2021/08/10 06:08:10;;;;;;;;;11.25;8.00;;;;;;;;4693823;24;45759;-88
2021/08/10 06:10:36;;;;;;;;;12.33;9.67;;;;;;;;4696156;30;47163;-89
2021/08/10 06:13:01;;;;;;;;;9.00;9.00;;;;;;;;4690696;30;45570;-90
2021/08/10 06:15:27;;;;;;;;;7.25;6.75;;;;;;;;4706543;24;45437;-81
2021/08/10 06:17:53;;;;;;;;;8.25;7.00;;;;;;;;4693099;30;45628;-82
2021/08/10 06:20:18;;;;;;;;;9.00;8.25;;;;;;;;4700174;30;46187;-82
2021/08/10 06:22:43;;;;;;;;;8.75;7.25;;;;;;;;4679298;30;45627;-82
2021/08/10 06:27:44;;;;;;;;;8.00;8.00;;;;;;;;4447755;28;45688;-90
2021/08/10 06:30:09;;;;;;;;;11.00;9.00;;;;;;;;4651431;30;47912;-90
2021/08/10 06:35:10;;;;;;;;;12.00;7.00;;;;;;;;4828726;24;45009;-81
2021/08/10 06:37:35;;;;;;;;;10.50;7.50;;;;;;;;4749691;24;45559;-81
2021/08/10 06:40:00;;;;;;;;;9.25;7.00;;;;;;;;4694615;30;45376;-81
2021/08/10 06:42:29;;;;;;;;;9.67;8.33;;;;;;;;4907103;24;46057;-81
2021/08/10 06:44:54;;;;;;;;;12.75;9.00;;;;;;;;4676991;30;45787;-81
2021/08/10 06:47:19;;;;;;;;;10.00;9.00;;;;;;;;4730195;24;45518;-81
2021/08/10 06:49:48;;;;;;;;;11.75;11.25;;;;;;;;4694869;30;45661;-81
2021/08/10 06:52:13;;;;;;;;;9.50;9.00;;;;;;;;4684632;24;46405;-81
2021/08/10 06:54:38;;;;;;;;;9.75;8.00;;;;;;;;4778359;24;45892;-81
2021/08/10 06:57:07;;;;;;;;;9.75;8.50;;;;;;;;4719800;24;45611;-80
2021/08/10 06:59:36;;;;;;;;;10.00;8.75;;;;;;;;4698215;30;48020;-81
2021/08/10 07:04:36;;;;;;;;;11.50;9.00;;;;;;;;5147024;24;53970;-82
2021/08/10 07:09:33;;;;;;;;;9.50;8.50;;;;;;;;4691408;30;46074;-89
2021/08/10 07:12:02;;;;;;;;;9.50;8.75;;;;;;;;4699982;30;45440;-89
2021/08/10 07:14:27;;;;;;;;;9.50;9.00;;;;;;;;4693505;30;45574;-88
2021/08/10 07:16:52;;;;;;;;;8.25;7.75;;;;;;;;4689590;30;45435;-89
2021/08/10 07:19:17;;;;;;;;;11.50;8.00;;;;;;;;4698238;30;47435;-89
2021/08/10 07:21:43;;;;;;;;;9.50;9.50;;;;;;;;4732023;24;45456;-88
2021/08/10 07:24:08;;;;;;;;;11.00;8.50;;;;;;;;4825244;24;45810;-89
2021/08/10 07:26:34;;;;;;;;;13.50;9.00;;;;;;;;4714352;29;45605;-90
2021/08/10 07:28:59;;;;;;;;;12.75;10.25;;;;;;;;4716731;29;46464;-89
2021/08/10 07:31:25;;;;;;;;;10.00;9.00;;;;;;;;4713297;30;45525;-89
2021/08/10 07:33:50;;;;;;;;;10.50;9.25;;;;;;;;4687221;30;45397;-89
2021/08/10 07:36:16;;;;;;;;;9.67;9.00;;;;;;;;4696507;30;45226;-89
2021/08/10 07:38:41;;;;;;;;;14.50;11.00;;;;;;;;4713153;30;45547;-88
2021/08/10 07:41:06;;;;;;;;;11.00;9.33;;;;;;;;4711294;30;45600;-88
2021/08/10 07:43:31;;;;;;;;;9.25;9.25;;;;;;;;4702464;30;45520;-87
2021/08/10 07:45:56;;;;;;;;;12.00;8.50;;;;;;;;4713090;29;45565;-89
2021/08/10 07:48:22;;;;;;;;;10.67;9.33;;;;;;;;4703819;30;46180;-89
2021/08/10 07:50:50;;;;;;;;;10.67;9.00;;;;;;;;5016517;24;46967;-81
2021/08/10 07:53:21;;;;;;;;;9.00;8.00;;;;;;;;4750464;24;45498;-81
2021/08/10 07:55:47;;;;;;;;;7.25;7.00;;;;;;;;4688585;24;46941;-80
2021/08/10 07:58:13;;;;;;;;;10.00;9.00;;;;;;;;4710342;30;46005;-79
2021/08/10 08:00:38;;;;;;;;;14.00;10.75;;;;;;;;4717015;30;45740;-79
2021/08/10 08:03:03;;;;;;;;;12.00;9.75;;;;;;;;4717861;30;44872;-80
2021/08/10 08:05:29;;;;;;;;;11.50;10.00;;;;;;;;4716205;30;45632;-80
2021/08/10 08:08:01;;;;;;;;;12.75;9.25;;;;;;;;4699600;30;48415;-81
2021/08/10 08:10:27;;;;;;;;;9.50;7.75;;;;;;;;4703719;30;45414;-81
2021/08/10 08:12:55;;;;;;;;;12.50;10.50;;;;;;;;4696291;30;45577;-81
2021/08/10 08:15:20;;;;;;;;;11.50;9.00;;;;;;;;4713520;24;45778;-80
2021/08/10 08:17:46;;;;;;;;;11.50;9.75;;;;;;;;4699932;30;46375;-80
2021/08/10 08:20:11;;;;;;;;;8.50;7.00;;;;;;;;4684947;30;45574;-80
2021/08/10 08:22:37;;;;;;;;;13.75;10.00;;;;;;;;4713914;24;45566;-79
2021/08/10 08:27:37;;;;;;;;;7.25;7.00;;;;;;;;4715595;24;45574;-89
2021/08/10 08:32:38;;;;;;;;;9.00;7.50;;;;;;;;4844272;24;45898;-88
2021/08/10 08:35:03;;;;;;;;;8.75;7.25;;;;;;;;4721195;24;45548;-88
2021/08/10 08:37:29;;;;;;;;;10.00;9.00;;;;;;;;4681706;30;48370;-89
2021/08/10 08:39:54;;;;;;;;;7.33;7.33;;;;;;;;4698581;30;45365;-88
2021/08/10 08:42:21;;;;;;;;;8.75;7.00;;;;;;;;4848887;24;45546;-81
2021/08/10 08:44:47;;;;;;;;;6.75;6.00;;;;;;;;4677474;30;45566;-82
2021/08/10 08:47:19;;;;;;;;;9.25;6.25;;;;;;;;4792285;24;46638;-89
2021/08/10 08:49:46;;;;;;;;;8.25;6.00;;;;;;;;4677816;30;45706;-90
2021/08/10 08:52:13;;;;;;;;;8.00;7.00;;;;;;;;4677552;30;45430;-89
2021/08/10 08:54:42;;;;;;;;;6.00;5.75;;;;;;;;4881069;24;45375;-81
2021/08/10 08:57:11;;;;;;;;;6.75;6.75;;;;;;;;4744670;24;46334;-81
2021/08/10 08:59:39;;;;;;;;;7.75;6.25;;;;;;;;4778503;24;46098;-81
2021/08/10 09:02:10;;;;;;;;;7.00;6.75;;;;;;;;4717842;24;45436;-89
2021/08/10 09:04:53;;;;;;;;;9.00;6.00;;;;;;;;4780954;24;45519;-80
2021/08/10 09:07:18;;;;;;;;;8.00;5.25;;;;;;;;4810540;24;46288;-89
2021/08/10 09:09:46;;;;;;;;;9.00;7.00;;;;;;;;4657437;30;45500;-89
2021/08/10 09:12:12;;;;;;;;;4.00;4.00;;;;;;;;4659316;30;45599;-88
2021/08/10 09:14:48;;;;;;;;;10.50;6.75;;;;;;;;4667377;30;45830;-89
2021/08/10 09:17:16;;;;;;;;;7.00;6.50;;;;;;;;4705468;24;47215;-89
2021/08/10 09:19:52;;;;;;;;;6.00;6.00;;;;;;;;4778795;24;45899;-81
2021/08/10 09:22:19;;;;;;;;;9.00;6.00;;;;;;;;4685600;30;45590;-81
2021/08/10 09:24:45;;;;;;;;;7.75;5.00;;;;;;;;4701727;24;45628;-80
2021/08/10 09:27:45;;;;;;;;;5.75;5.75;;;;;;;;4656488;30;47900;-80
2021/08/10 09:30:13;;;;;;;;;7.75;5.00;;;;;;;;4724502;24;45522;-82
2021/08/10 09:33:04;;;;;;;;;8.75;7.00;;;;;;;;4695204;30;45852;-80
2021/08/10 09:35:31;;;;;;;;;6.75;5.00;;;;;;;;4701148;24;45659;-81
2021/08/10 09:38:10;;;;;;;;;6.50;6.00;;;;;;;;4684460;30;46821;-80
2021/08/10 09:40:40;;;;;;;;;6.00;5.25;;;;;;;;4691242;30;45589;-80
2021/08/10 09:43:25;;;;;;;;;6.00;4.75;;;;;;;;4667836;30;45683;-80
2021/08/10 09:46:03;;;;;;;;;4.75;4.50;;;;;;;;4736836;24;45578;-81
2021/08/10 09:48:29;;;;;;;;;6.75;5.75;;;;;;;;4683987;30;45543;-81
2021/08/10 09:54:12;;;;;;;;;6.50;4.75;;;;;;;;4875817;24;45407;-83
2021/08/10 09:56:38;;;;;;;;;9.50;6.50;;;;;;;;4675454;30;45581;-82
2021/08/10 09:59:03;;;;;;;;;6.00;5.00;;;;;;;;4693663;30;46121;-81
2021/08/10 10:01:32;;;;;;;;;5.00;4.75;;;;;;;;4696716;30;49111;-81
2021/08/10 10:04:11;;;;;;;;;6.50;4.50;;;;;;;;4691799;30;45514;-82
2021/08/10 10:06:46;;;;;;;;;4.75;4.75;;;;;;;;4700795;30;45730;-81
2021/08/10 10:09:12;;;;;;;;;5.00;5.00;;;;;;;;4695750;30;46130;-82
2021/08/10 10:11:39;;;;;;;;;6.25;5.00;;;;;;;;4810151;24;45820;-82
2021/08/10 10:14:05;;;;;;;;;5.00;4.75;;;;;;;;4663176;30;45505;-81
2021/08/10 10:16:31;;;;;;;;;10.50;5.00;;;;;;;;4878949;24;45672;-89
2021/08/10 10:19:02;;;;;;;;;5.50;5.00;;;;;;;;4800580;24;47155;-88
2021/08/10 10:21:28;;;;;;;;;5.75;4.00;;;;;;;;4676279;30;47022;-88
2021/08/10 10:23:54;;;;;;;;;4.75;4.00;;;;;;;;4674863;30;45530;-88
2021/08/10 10:26:22;;;;;;;;;3.75;3.00;;;;;;;;4698135;30;45442;-87
2021/08/10 10:28:47;;;;;;;;;5.00;4.00;;;;;;;;4748216;24;45528;-80
2021/08/10 10:31:13;;;;;;;;;4.75;3.75;;;;;;;;4785506;24;45595;-82
2021/08/10 10:33:39;;;;;;;;;5.00;4.50;;;;;;;;4731317;24;45467;-82
2021/08/10 10:36:04;;;;;;;;;4.00;3.00;;;;;;;;4679143;29;45589;-80
2021/08/10 10:38:31;;;;;;;;;5.00;3.50;;;;;;;;4687298;24;48605;-89
2021/08/10 10:40:59;;;;;;;;;3.50;3.00;;;;;;;;4690459;30;45428;-88
2021/08/10 10:45:54;;;;;;;;;4.00;3.00;;;;;;;;4760703;24;46984;-89
2021/08/10 10:48:26;;;;;;;;;6.00;5.00;;;;;;;;4745623;24;46627;-87
2021/08/10 10:51:08;;;;;;;;;4.75;2.25;;;;;;;;4699541;30;45556;-89
2021/08/10 10:53:37;;;;;;;;;5.00;3.75;;;;;;;;4736532;24;45536;-87
2021/08/10 10:56:03;;;;;;;;;3.00;3.00;;;;;;;;4693960;30;45601;-87
2021/08/10 10:58:31;;;;;;;;;5.00;3.25;;;;;;;;4707231;30;46213;-88
2021/08/10 11:01:11;;;;;;;;;3.00;3.00;;;;;;;;4744344;24;45714;-85
2021/08/10 11:03:37;;;;;;;;;4.00;3.25;;;;;;;;4667243;30;45833;-82
2021/08/10 11:06:45;;;;;;;;;3.00;3.00;;;;;;;;4739015;24;45610;-82
2021/08/10 11:09:31;;;;;;;;;6.00;5.00;;;;;;;;4638730;30;46560;-81
2021/08/10 11:11:56;;;;;;;;;3.00;2.75;;;;;;;;4636655;30;45631;-81
2021/08/10 11:14:36;;;;;;;;;3.50;3.50;;;;;;;;4639048;30;45648;-81
2021/08/10 11:17:07;;;;;;;;;5.50;3.50;;;;;;;;4631978;30;45894;-81
2021/08/10 11:19:33;;;;;;;;;7.25;3.50;;;;;;;;4636821;30;45668;-81
2021/08/10 11:25:23;;;;;;;;;3.75;3.75;;;;;;;;4707774;30;45483;-89
2021/08/10 11:27:49;;;;;;;;;4.75;4.00;;;;;;;;4686264;30;45568;-88
2021/08/10 11:30:20;;;;;;;;;4.50;4.00;;;;;;;;4697966;30;46130;-88
2021/08/10 11:32:47;;;;;;;;;3.75;2.75;;;;;;;;4672179;30;45497;-89
2021/08/10 11:35:22;;;;;;;;;3.75;3.25;;;;;;;;4740167;24;45264;-81
2021/08/10 11:38:06;;;;;;;;;4.25;2.50;;;;;;;;4747747;24;46676;-81
2021/08/10 11:40:53;;;;;;;;;4.75;3.00;;;;;;;;4691535;30;48188;-81
2021/08/10 11:45:57;;;;;;;;;3.25;3.00;;;;;;;;4724524;24;46759;-81
2021/08/10 11:48:23;;;;;;;;;3.75;3.00;;;;;;;;4689887;24;45564;-81
2021/08/10 11:50:49;;;;;;;;;3.75;2.75;;;;;;;;4688483;30;45452;-81
2021/08/10 11:53:27;;;;;;;;;3.25;2.25;;;;;;;;4669456;30;45648;-81
2021/08/10 11:55:52;;;;;;;;;2.00;2.00;;;;;;;;4683616;30;45669;-81
2021/08/10 11:58:17;;;;;;;;;3.00;2.00;;;;;;;;4695720;30;45740;-81
2021/08/10 12:00:45;;;;;;;;;2.75;2.75;;;;;;;;4676304;30;47219;-82
2021/08/10 12:03:11;;;;;;;;;2.00;2.00;;;;;;;;4693210;24;45587;-81
2021/08/10 12:05:36;;;;;;;;;3.00;3.00;;;;;;;;4668195;30;45499;-81
2021/08/10 12:08:01;;;;;;;;;3.25;3.25;;;;;;;;4904632;24;45595;-82
2021/08/10 12:10:30;;;;;;;;;2.00;2.00;;;;;;;;4692305;30;46503;-81
2021/08/10 12:13:00;;;;;;;;;2.75;1.00;;;;;;;;4685141;30;45420;-81
2021/08/10 12:15:34;;;;;;;;;1.00;1.00;;;;;;;;4804730;24;45574;-89
2021/08/10 12:20:27;;;;;;;;;3.00;1.75;;;;;;;;4682723;24;45886;-82
2021/08/10 12:23:02;;;;;;;;;1.50;1.50;;;;;;;;4682169;30;45989;-81
2021/08/10 12:25:27;;;;;;;;;3.25;1.75;;;;;;;;4674758;30;45712;-81
2021/08/10 12:28:01;;;;;;;;;1.50;1.50;;;;;;;;4679610;30;45496;-81
2021/08/10 12:30:29;;;;;;;;;4.00;2.00;;;;;;;;4689495;30;51611;-81
2021/08/10 12:33:08;;;;;;;;;5.75;2.25;;;;;;;;4695421;30;45829;-81
2021/08/10 12:35:33;;;;;;;;;4.00;2.75;;;;;;;;4695797;30;45547;-82
2021/08/10 12:37:59;;;;;;;;;3.25;2.00;;;;;;;;4678365;30;45632;-81
2021/08/10 12:40:24;;;;;;;;;2.50;2.00;;;;;;;;4675417;25;46469;-89
2021/08/10 12:42:50;;;;;;;;;2.50;1.00;;;;;;;;4673952;30;45550;-91
2021/08/10 12:45:15;;;;;;;;;4.00;2.00;;;;;;;;4902887;24;46138;-81
2021/08/10 12:47:42;;;;;;;;;4.50;3.00;;;;;;;;4678766;30;45540;-81
2021/08/10 12:50:26;;;;;;;;;2.00;2.00;;;;;;;;4759030;24;47916;-81
2021/08/10 12:52:55;;;;;;;;;1.25;1.25;;;;;;;;4696533;30;45037;-82
2021/08/10 12:55:24;;;;;;;;;2.00;2.00;;;;;;;;4744386;24;45493;-82
2021/08/10 12:57:59;;;;;;;;;3.75;2.75;;;;;;;;4704362;24;46819;-88
2021/08/10 13:00:25;;;;;;;;;3.00;2.00;;;;;;;;4718350;24;45555;-88
2021/08/10 13:02:50;;;;;;;;;1.00;1.00;;;;;;;;4807805;24;46060;-89
2021/08/10 13:05:19;;;;;;;;;2.00;1.00;;;;;;;;4677142;30;45573;-89
2021/08/10 13:08:01;;;;;;;;;2.00;2.00;;;;;;;;4719238;24;45572;-88
2021/08/10 13:10:30;;;;;;;;;2.25;1.00;;;;;;;;4694535;30;46454;-90
2021/08/10 13:12:57;;;;;;;;;1.00;1.00;;;;;;;;4695815;30;45463;-89
2021/08/10 13:15:22;;;;;;;;;4.25;1.25;;;;;;;;4696032;30;45412;-89
2021/08/10 13:17:51;;;;;;;;;2.50;1.00;;;;;;;;4700097;30;45561;-88
2021/08/10 13:20:17;;;;;;;;;3.00;1.00;;;;;;;;4723755;24;47248;-89
2021/08/10 13:23:03;;;;;;;;;1.00;1.00;;;;;;;;4679179;30;45488;-88
2021/08/10 13:25:30;;;;;;;;;1.00;1.00;;;;;;;;4715309;24;45467;-90
2021/08/10 13:28:10;;;;;;;;;1.00;1.00;;;;;;;;4696788;30;45446;-89
2021/08/10 13:30:35;;;;;;;;;2.00;1.25;;;;;;;;4687441;30;46709;-90
2021/08/10 13:33:16;;;;;;;;;2.00;2.00;;;;;;;;4697800;30;45434;-89
2021/08/10 13:35:41;;;;;;;;;1.25;1.25;;;;;;;;4700051;30;45777;-88
2021/08/10 13:38:07;;;;;;;;;2.00;1.00;;;;;;;;4701576;24;45593;-82
2021/08/10 13:40:33;;;;;;;;;2.50;2.50;;;;;;;;4694422;30;46537;-80
2021/08/10 13:42:59;;;;;;;;;2.25;1.00;;;;;;;;4720922;24;45790;-81
2021/08/10 13:45:24;;;;;;;;;2.00;2.00;;;;;;;;4689966;30;45442;-81
2021/08/10 13:47:50;;;;;;;;;1.00;1.00;;;;;;;;4706664;24;45611;-80
2021/08/10 13:50:17;;;;;;;;;1.00;1.00;;;;;;;;4696626;30;46626;-81
2021/08/10 13:52:42;;;;;;;;;0.50;0.50;;;;;;;;4716813;24;45618;-92
2021/08/10 13:57:44;;;;;;;;;1.25;1.25;;;;;;;;4951785;24;45758;-88
2021/08/10 14:00:10;;;;;;;;;4.00;2.00;;;;;;;;4709162;24;47291;-90
2021/08/10 14:02:37;;;;;;;;;1.00;1.00;;;;;;;;4699405;30;45582;-90
2021/08/10 14:05:03;;;;;;;;;1.00;1.00;;;;;;;;4896583;24;45643;-90
2021/08/10 14:07:31;;;;;;;;;2.00;2.00;;;;;;;;4723222;24;45492;-81
2021/08/10 14:09:56;;;;;;;;;2.00;2.00;;;;;;;;4753285;24;50873;-80
2021/08/10 14:12:21;;;;;;;;;1.00;1.00;;;;;;;;4692283;30;45673;-80
2021/08/10 14:14:46;;;;;;;;;2.33;1.00;;;;;;;;4716495;24;45755;-89
2021/08/10 14:17:12;;;;;;;;;1.00;1.00;;;;;;;;4688052;30;45530;-90
2021/08/10 14:19:37;;;;;;;;;1.50;1.00;;;;;;;;4694285;30;45685;-91
2021/08/10 14:22:02;;;;;;;;;1.25;1.25;;;;;;;;4737312;24;45450;-90
2021/08/10 14:24:28;;;;;;;;;3.00;1.00;;;;;;;;4696983;24;45293;-81
2021/08/10 14:26:53;;;;;;;;;1.00;1.00;;;;;;;;4682113;30;45592;-81
2021/08/10 14:29:18;;;;;;;;;2.00;2.00;;;;;;;;4687450;30;45849;-82
2021/08/10 14:31:43;;;;;;;;;1.75;1.75;;;;;;;;4712270;30;45567;-81
2021/08/10 14:34:12;;;;;;;;;2.00;2.00;;;;;;;;4714635;30;45533;-82
2021/08/10 14:36:37;;;;;;;;;1.00;1.00;;;;;;;;4691830;30;45622;-82
2021/08/10 14:39:21;;;;;;;;;2.25;2.00;;;;;;;;4708760;30;46315;-83
2021/08/10 14:41:47;;;;;;;;;2.00;2.00;;;;;;;;4716155;29;45480;-82
2021/08/10 14:44:12;;;;;;;;;2.00;1.00;;;;;;;;4728963;24;45821;-81
2021/08/10 14:46:41;;;;;;;;;2.25;1.50;;;;;;;;4673772;30;45667;-81
2021/08/10 14:49:06;;;;;;;;;3.00;1.50;;;;;;;;4748836;24;45674;-81
2021/08/10 14:51:32;;;;;;;;;2.00;1.00;;;;;;;;4684966;30;45799;-81
2021/08/10 14:53:57;;;;;;;;;1.00;1.00;;;;;;;;4694153;30;45566;-84
2021/08/10 14:56:22;;;;;;;;;1.25;1.25;;;;;;;;4696356;30;45505;-81
2021/08/10 14:58:47;;;;;;;;;3.25;3.25;;;;;;;;4679497;30;47255;-81
2021/08/10 15:01:13;;;;;;;;;4.00;3.00;;;;;;;;4694432;30;45546;-81
2021/08/10 15:03:59;;;;;;;;;5.00;3.50;;;;;;;;4682163;30;45549;-81
2021/08/10 15:06:24;;;;;;;;;3.75;3.75;;;;;;;;4709328;24;45563;-81
2021/08/10 15:08:55;;;;;;;;;3.00;3.00;;;;;;;;4698038;30;46009;-82
2021/08/10 15:11:20;;;;;;;;;2.00;1.75;;;;;;;;4704797;25;45379;-92
2021/08/10 15:13:45;;;;;;;;;2.00;2.00;;;;;;;;4707614;30;45427;-91
2021/08/10 15:16:10;;;;;;;;;1.00;1.00;;;;;;;;4681287;24;45525;-81
2021/08/10 15:18:36;;;;;;;;;1.00;1.00;;;;;;;;4676141;30;45495;-83
2021/08/10 15:21:04;;;;;;;;;1.50;1.50;;;;;;;;4662103;30;45591;-81
2021/08/10 15:23:30;;;;;;;;;2.00;1.00;;;;;;;;4656610;30;45545;-82
2021/08/10 15:25:56;;;;;;;;;1.00;1.00;;;;;;;;4670280;30;45584;-82
2021/08/10 15:28:21;;;;;;;;;2.00;1.00;;;;;;;;4674513;30;47334;-82
2021/08/10 15:30:46;;;;;;;;;0.25;0.00;;;;;;;;4674828;30;45638;-81
2021/08/10 15:33:12;;;;;;;;;0.00;0.00;;;;;;;;4660075;30;47324;-82
2021/08/10 15:35:37;;;;;;;;;1.00;1.00;;;;;;;;4661757;30;45680;-82
2021/08/10 15:38:03;;;;;;;;;1.00;1.00;;;;;;;;4675382;30;45713;-82